createdAt,value
2019-03-22T00:01:18.526Z,36.73
2019-03-22T00:03:52.310Z,36.40
2019-03-22T00:06:27.392Z,30.17
2019-03-22T00:09:01.274Z,30.50
2019-03-22T00:11:37.190Z,37.40
2019-03-22T00:14:11.623Z,34.20
2019-03-22T00:16:45.208Z,36.80
2019-03-22T00:19:20.255Z,33.27
2019-03-22T00:21:53.777Z,37.63
2019-03-22T00:24:26.877Z,41.17
2019-03-22T00:27:00.081Z,38.47
2019-03-22T00:29:33.178Z,47.53
2019-03-22T00:32:06.958Z,53.03
2019-03-22T00:34:41.535Z,47.83
2019-03-22T00:37:15.403Z,45.23
2019-03-22T00:39:49.175Z,41.57
2019-03-22T00:42:22.864Z,53.60
2019-03-22T00:44:56.950Z,44.90
2019-03-22T00:47:29.761Z,42.73
2019-03-22T00:50:03.000Z,39.50
2019-03-22T00:52:37.194Z,43.30
2019-03-22T00:55:10.425Z,36.20
2019-03-22T00:57:44.625Z,37.60
2019-03-22T01:00:18.910Z,44.00
2019-03-22T01:02:52.920Z,37.30
2019-03-22T01:05:26.739Z,38.60
2019-03-22T01:07:59.796Z,49.37
2019-03-22T01:10:33.383Z,51.80
2019-03-22T01:13:08.472Z,46.07
2019-03-22T01:15:44.283Z,46.13
2019-03-22T01:18:17.799Z,48.17
2019-03-22T01:20:51.902Z,51.60
2019-03-22T01:23:25.283Z,48.23
2019-03-22T01:25:58.278Z,51.13
2019-03-22T01:28:32.662Z,49.17
2019-03-22T01:31:07.023Z,48.93
2019-03-22T01:33:40.463Z,57.47
2019-03-22T01:36:16.392Z,58.13
2019-03-22T01:38:50.270Z,57.77
2019-03-22T01:41:23.393Z,63.83
2019-03-22T01:44:01.120Z,57.03
2019-03-22T01:46:36.103Z,65.60
2019-03-22T01:49:11.328Z,67.17
2019-03-22T01:51:45.480Z,55.83
2019-03-22T01:54:19.375Z,71.90
2019-03-22T01:56:54.047Z,86.77
2019-03-22T01:59:28.020Z,81.27
2019-03-22T02:02:01.211Z,79.13
2019-03-22T02:04:34.503Z,73.90
2019-03-22T02:07:07.699Z,87.03
2019-03-22T02:09:41.622Z,97.97
2019-03-22T02:12:15.885Z,86.50
2019-03-22T02:14:51.648Z,99.60
2019-03-22T02:17:25.047Z,97.43
2019-03-22T02:19:58.139Z,99.70
2019-03-22T02:22:31.942Z,109.37
2019-03-22T02:25:05.581Z,105.33
2019-03-22T02:27:38.707Z,89.30
2019-03-22T02:30:12.009Z,92.30
2019-03-22T02:32:46.025Z,78.97
2019-03-22T02:35:28.427Z,86.27
2019-03-22T02:37:54.468Z,81.23
2019-03-22T02:40:27.871Z,76.50
2019-03-22T02:43:02.280Z,94.50
2019-03-22T02:45:35.765Z,140.03
2019-03-22T02:48:10.016Z,138.13
2019-03-22T02:50:45.038Z,127.60
2019-03-22T02:53:18.789Z,111.30
2019-03-22T02:55:53.117Z,142.10
2019-03-22T02:58:26.460Z,112.67
2019-03-22T03:01:00.365Z,115.90
2019-03-22T03:03:33.601Z,101.80
2019-03-22T03:06:06.441Z,103.97
2019-03-22T03:08:39.857Z,99.37
2019-03-22T03:11:13.608Z,102.90
2019-03-22T03:13:47.697Z,94.90
2019-03-22T03:16:21.905Z,102.07
2019-03-22T03:18:58.000Z,86.13
2019-03-22T03:21:31.286Z,92.83
2019-03-22T03:24:04.769Z,91.10
2019-03-22T03:26:38.783Z,90.90
2019-03-22T03:29:12.085Z,106.00
2019-03-22T03:31:45.114Z,113.13
2019-03-22T03:34:19.218Z,104.83
2019-03-22T03:36:53.089Z,117.87
2019-03-22T03:39:26.276Z,111.07
2019-03-22T03:41:59.982Z,102.47
2019-03-22T03:44:33.894Z,138.13
2019-03-22T03:47:10.472Z,114.17
2019-03-22T03:49:42.601Z,99.43
2019-03-22T03:52:15.662Z,111.57
2019-03-22T03:54:49.076Z,96.67
2019-03-22T03:57:22.709Z,99.13
2019-03-22T03:59:57.282Z,92.50
2019-03-22T04:02:30.800Z,115.77
2019-03-22T04:05:04.500Z,92.70
2019-03-22T04:07:38.957Z,95.70
2019-03-22T04:10:12.864Z,100.00
2019-03-22T04:12:46.801Z,89.17
2019-03-22T04:15:20.290Z,95.27
2019-03-22T04:17:54.373Z,90.93
2019-03-22T04:20:28.485Z,101.37
2019-03-22T04:23:03.226Z,97.90
2019-03-22T04:25:36.347Z,94.13
2019-03-22T04:28:09.707Z,106.73
2019-03-22T04:30:42.612Z,113.27
2019-03-22T04:33:16.298Z,103.67
2019-03-22T04:35:49.742Z,92.80
2019-03-22T04:38:59.658Z,97.57
2019-03-22T04:41:35.093Z,94.67
2019-03-22T04:44:08.169Z,89.77
2019-03-22T04:46:48.889Z,95.77
2019-03-22T04:49:27.747Z,88.93
2019-03-22T04:52:01.994Z,89.57
2019-03-22T04:54:37.963Z,92.17
2019-03-22T04:57:13.726Z,92.97
2019-03-22T04:59:49.216Z,92.00
2019-03-22T05:02:22.723Z,98.70
2019-03-22T05:04:56.498Z,101.20
2019-03-22T05:07:31.530Z,83.60
2019-03-22T05:10:05.344Z,79.93
2019-03-22T05:12:39.978Z,97.37
2019-03-22T05:15:16.908Z,84.13
2019-03-22T05:17:50.642Z,92.07
2019-03-22T05:20:24.099Z,94.53
2019-03-22T05:22:58.291Z,95.17
2019-03-22T05:25:33.569Z,89.77
2019-03-22T05:28:08.633Z,93.57
2019-03-22T05:31:29.995Z,84.97
2019-03-22T05:34:02.880Z,96.67
2019-03-22T05:36:36.172Z,88.20
2019-03-22T05:39:11.771Z,85.00
2019-03-22T05:41:44.555Z,93.40
2019-03-22T05:44:18.662Z,102.63
2019-03-22T05:46:52.046Z,96.57
2019-03-22T05:49:25.493Z,91.17
2019-03-22T05:51:59.445Z,94.03
2019-03-22T05:54:32.966Z,95.33
2019-03-22T05:57:13.324Z,105.93
2019-03-22T05:59:43.223Z,88.07
2019-03-22T06:02:19.066Z,101.37
2019-03-22T06:04:54.153Z,102.37
2019-03-22T06:07:27.752Z,98.60
2019-03-22T06:10:01.542Z,93.67
2019-03-22T06:12:34.878Z,92.57
2019-03-22T06:15:08.776Z,89.37
2019-03-22T06:17:51.285Z,80.30
2019-03-22T06:20:17.540Z,84.10
2019-03-22T06:22:51.330Z,90.17
2019-03-22T06:25:24.566Z,84.67
2019-03-22T06:27:58.465Z,92.37
2019-03-22T06:30:32.295Z,80.73
2019-03-22T06:33:05.866Z,81.33
2019-03-22T06:35:39.325Z,82.67
2019-03-22T06:38:13.165Z,87.57
2019-03-22T06:40:48.567Z,87.27
2019-03-22T06:43:23.053Z,83.37
2019-03-22T06:45:57.463Z,73.93
2019-03-22T06:48:32.238Z,65.53
2019-03-22T06:51:06.698Z,80.20
2019-03-22T06:53:41.568Z,85.43
2019-03-22T06:56:16.381Z,71.83
2019-03-22T06:58:51.154Z,62.73
2019-03-22T07:01:25.248Z,65.17
2019-03-22T07:03:59.709Z,66.17
2019-03-22T07:06:33.883Z,59.47
2019-03-22T07:09:10.336Z,71.77
2019-03-22T07:11:43.950Z,79.60
2019-03-22T07:14:17.709Z,66.20
2019-03-22T07:16:51.153Z,71.70
2019-03-22T07:19:25.257Z,66.47
2019-03-22T07:21:58.605Z,65.37
2019-03-22T07:24:32.238Z,60.77
2019-03-22T07:27:06.701Z,53.87
2019-03-22T07:29:41.042Z,53.20
2019-03-22T07:32:18.975Z,53.97
2019-03-22T07:34:53.970Z,57.60
2019-03-22T07:37:29.183Z,51.50
2019-03-22T07:40:03.868Z,57.73
2019-03-22T07:42:39.357Z,59.57
2019-03-22T07:45:14.080Z,59.63
2019-03-22T07:47:50.754Z,52.87
2019-03-22T07:50:25.868Z,53.47
2019-03-22T07:53:02.141Z,55.40
2019-03-22T07:55:41.922Z,48.77
2019-03-22T07:58:21.139Z,48.43
2019-03-22T08:00:56.730Z,42.33
2019-03-22T08:03:32.824Z,44.73
2019-03-22T08:06:08.504Z,46.63
2019-03-22T08:08:47.364Z,42.17
2019-03-22T08:11:24.653Z,35.10
2019-03-22T08:14:01.661Z,34.27
2019-03-22T08:16:41.413Z,30.77
2019-03-22T08:19:18.979Z,27.33
2019-03-22T08:21:54.636Z,31.37
2019-03-22T08:24:30.027Z,32.30
2019-03-22T08:27:05.033Z,29.33
2019-03-22T08:29:40.366Z,27.80
2019-03-22T08:32:16.882Z,26.40
2019-03-22T08:34:51.748Z,27.73
2019-03-22T08:37:25.597Z,26.77
2019-03-22T08:40:01.344Z,23.77
2019-03-22T08:42:37.314Z,24.90
2019-03-22T08:45:12.205Z,20.23
2019-03-22T08:47:47.124Z,23.03
2019-03-22T08:50:22.862Z,21.03
2019-03-22T08:53:00.876Z,19.53
2019-03-22T08:55:37.031Z,18.93
2019-03-22T08:58:11.551Z,20.83
2019-03-22T09:00:57.227Z,21.70
2019-03-22T09:03:24.122Z,21.57
2019-03-22T09:06:00.557Z,22.60
2019-03-22T09:08:35.503Z,19.03
2019-03-22T09:11:12.002Z,20.83
2019-03-22T09:13:46.763Z,19.17
2019-03-22T09:16:22.370Z,20.03
2019-03-22T09:18:56.574Z,20.40
2019-03-22T09:21:32.655Z,22.37
2019-03-22T09:24:08.601Z,19.27
2019-03-22T09:26:47.943Z,22.57
2019-03-22T09:29:19.423Z,19.27
2019-03-22T09:31:54.759Z,21.17
2019-03-22T09:34:34.306Z,24.07
2019-03-22T09:37:09.078Z,20.27
2019-03-22T09:39:44.154Z,19.60
2019-03-22T09:42:18.822Z,20.20
2019-03-22T09:44:53.382Z,18.97
2019-03-22T09:47:27.728Z,19.10
2019-03-22T09:50:01.288Z,20.43
2019-03-22T09:52:35.849Z,17.23
2019-03-22T09:55:13.654Z,18.27
2019-03-22T09:57:49.436Z,18.30
2019-03-22T10:00:34.282Z,17.80
2019-03-22T10:03:08.877Z,20.33
2019-03-22T10:05:42.986Z,20.73
2019-03-22T10:08:17.165Z,19.33
2019-03-22T10:10:51.614Z,16.50
2019-03-22T10:13:25.959Z,19.70
2019-03-22T10:16:01.236Z,17.13
2019-03-22T10:18:37.285Z,15.77
2019-03-22T10:21:21.876Z,19.27
2019-03-22T10:23:47.671Z,18.07
2019-03-22T10:26:21.892Z,20.13
2019-03-22T10:28:58.830Z,13.60
2019-03-22T10:31:37.484Z,14.77
2019-03-22T10:34:10.365Z,17.73
2019-03-22T10:36:44.380Z,15.27
2019-03-22T10:39:18.834Z,17.37
2019-03-22T10:41:53.032Z,18.12
2019-03-22T10:44:29.004Z,17.57
2019-03-22T10:47:03.575Z,21.17
2019-03-22T10:49:41.727Z,18.67
2019-03-22T10:52:14.474Z,19.57
2019-03-22T10:54:49.809Z,18.92
2019-03-22T10:57:23.786Z,23.73
2019-03-22T10:59:57.506Z,20.15
2019-03-22T11:02:31.677Z,19.32
2019-03-22T11:05:05.353Z,18.60
2019-03-22T11:07:39.928Z,20.97
2019-03-22T11:10:14.747Z,19.32
2019-03-22T11:12:49.166Z,22.32
2019-03-22T11:15:24.136Z,19.15
2019-03-22T11:17:57.996Z,18.60
2019-03-22T11:20:34.362Z,21.15
2019-03-22T11:23:10.121Z,19.05
2019-03-22T11:25:44.782Z,19.70
2019-03-22T11:28:19.724Z,19.85
2019-03-22T11:31:04.705Z,22.30
2019-03-22T11:33:35.668Z,22.20
2019-03-22T11:36:10.772Z,17.52
2019-03-22T11:38:47.690Z,20.23
2019-03-22T11:41:23.747Z,17.32
2019-03-22T11:43:57.873Z,15.53
2019-03-22T11:46:32.600Z,17.80
2019-03-22T11:49:07.936Z,14.35
2019-03-22T11:51:42.245Z,15.63
2019-03-22T11:54:17.484Z,18.05
2019-03-22T11:56:54.458Z,16.17
2019-03-22T11:59:28.726Z,16.07
2019-03-22T12:02:02.850Z,13.85
2019-03-22T12:04:36.714Z,13.60
2019-03-22T12:07:10.852Z,14.13
2019-03-22T12:09:44.460Z,14.28
2019-03-22T12:12:18.226Z,14.40
2019-03-22T12:14:51.467Z,18.32
2019-03-22T12:17:25.782Z,13.90
2019-03-22T12:20:01.386Z,13.58
2019-03-22T12:22:35.447Z,17.02
2019-03-22T12:25:11.439Z,11.95
2019-03-22T12:27:45.389Z,12.70
2019-03-22T12:30:21.439Z,13.80
2019-03-22T12:32:57.812Z,13.10
2019-03-22T12:35:32.313Z,12.33
2019-03-22T12:38:06.129Z,13.70
2019-03-22T12:40:40.443Z,14.15
2019-03-22T12:43:14.201Z,12.37
2019-03-22T12:45:48.326Z,14.53
2019-03-22T12:48:21.989Z,16.48
2019-03-22T12:50:57.026Z,15.28
2019-03-22T12:53:31.333Z,16.15
2019-03-22T12:56:05.770Z,14.45
2019-03-22T12:58:40.832Z,16.15
2019-03-22T13:01:15.267Z,13.32
2019-03-22T13:03:49.208Z,15.83
2019-03-22T13:06:22.667Z,14.40
2019-03-22T13:08:56.945Z,15.72
2019-03-22T13:11:30.402Z,18.48
2019-03-22T13:14:04.405Z,14.90
2019-03-22T13:16:38.200Z,13.53
2019-03-22T13:19:13.324Z,19.00
2019-03-22T13:21:45.971Z,16.20
2019-03-22T13:24:17.937Z,15.53
2019-03-22T13:26:49.920Z,14.75
2019-03-22T13:29:22.478Z,21.48
2019-03-22T13:31:55.851Z,15.58
2019-03-22T13:34:28.339Z,13.68
2019-03-22T13:37:00.957Z,13.30
2019-03-22T13:39:34.143Z,13.28
2019-03-22T13:42:07.836Z,14.30
2019-03-22T13:44:39.985Z,15.28
2019-03-22T13:47:13.662Z,14.03
2019-03-22T13:49:46.487Z,16.12
2019-03-22T13:52:18.965Z,13.20
2019-03-22T13:54:52.141Z,13.65
2019-03-22T13:57:24.363Z,10.30
2019-03-22T13:59:58.594Z,10.58
2019-03-22T14:02:30.721Z,11.20
2019-03-22T14:05:03.264Z,11.38
2019-03-22T14:07:40.188Z,13.68
2019-03-22T14:10:20.493Z,11.03
2019-03-22T14:12:53.179Z,11.08
2019-03-22T14:15:26.569Z,8.38
2019-03-22T14:18:08.756Z,10.20
2019-03-22T14:20:41.122Z,9.35
2019-03-22T14:23:14.505Z,8.65
2019-03-22T14:25:47.447Z,9.08
2019-03-22T14:28:24.590Z,7.87
2019-03-22T14:30:57.148Z,8.75
2019-03-22T14:33:29.559Z,8.05
2019-03-22T14:36:04.090Z,8.45
2019-03-22T14:38:36.502Z,7.17
2019-03-22T14:41:12.036Z,9.10
2019-03-22T14:43:44.865Z,7.28
2019-03-22T14:46:18.450Z,8.83
2019-03-22T14:48:51.271Z,7.00
2019-03-22T14:51:23.479Z,7.50
2019-03-22T14:53:56.771Z,6.47
2019-03-22T14:56:29.434Z,8.00
2019-03-22T14:59:01.346Z,5.55
2019-03-22T15:01:32.871Z,8.85
2019-03-22T15:04:07.614Z,6.30
2019-03-22T15:06:40.102Z,3.75
2019-03-22T15:09:14.408Z,4.05
2019-03-22T15:11:46.815Z,3.27
2019-03-22T15:14:33.929Z,4.27
2019-03-22T15:17:28.150Z,4.83
2019-03-22T15:20:12.499Z,4.42
2019-03-22T15:23:02.374Z,3.70
2019-03-22T15:25:52.371Z,5.60
2019-03-22T15:28:47.672Z,4.25
2019-03-22T15:31:41.843Z,6.87
2019-03-22T15:34:36.924Z,3.50
2019-03-22T15:37:31.390Z,3.52
2019-03-22T15:40:05.372Z,3.30
2019-03-22T15:42:37.393Z,4.40
2019-03-22T15:45:12.038Z,4.08
2019-03-22T15:47:46.275Z,4.15
2019-03-22T15:50:19.005Z,3.10
2019-03-22T15:52:52.716Z,3.92
2019-03-22T15:55:24.975Z,2.77
2019-03-22T15:57:57.436Z,4.25
2019-03-22T16:00:29.891Z,4.00
2019-03-22T16:03:06.486Z,5.25
2019-03-22T16:05:39.284Z,3.62
2019-03-22T16:08:12.910Z,3.70
2019-03-22T16:10:45.308Z,3.98
2019-03-22T16:13:27.274Z,2.22
2019-03-22T16:16:00.423Z,2.87
2019-03-22T16:18:33.598Z,6.58
2019-03-22T16:21:05.665Z,2.37
2019-03-22T16:23:38.891Z,2.95
2019-03-22T16:26:11.244Z,2.02
2019-03-22T16:28:44.065Z,2.62
2019-03-22T16:31:17.861Z,7.05
2019-03-22T16:33:54.795Z,4.58
2019-03-22T16:36:28.932Z,2.02
2019-03-22T16:39:01.567Z,1.75
2019-03-22T16:41:35.661Z,3.05
2019-03-22T16:44:08.053Z,4.70
2019-03-22T16:46:41.211Z,1.82
2019-03-22T16:49:13.689Z,26.52
2019-03-22T16:51:46.806Z,30.30
2019-03-22T16:54:19.905Z,13.83
2019-03-22T16:56:52.116Z,12.07
2019-03-22T16:59:24.278Z,3.55
2019-03-22T17:01:57.114Z,3.95
2019-03-22T17:04:29.291Z,2.15
2019-03-22T17:07:04.070Z,5.17
2019-03-22T17:09:36.460Z,2.83
2019-03-22T17:12:08.675Z,5.15
2019-03-22T17:14:41.105Z,7.78
2019-03-22T17:17:14.113Z,6.65
2019-03-22T17:19:46.691Z,11.30
2019-03-22T17:22:20.549Z,5.10
2019-03-22T17:24:53.113Z,5.23
2019-03-22T17:27:25.696Z,7.47
2019-03-22T17:29:58.260Z,6.40
2019-03-22T17:32:31.048Z,9.37
2019-03-22T17:35:03.418Z,9.40
2019-03-22T17:37:36.755Z,6.43
2019-03-22T17:40:09.864Z,6.50
2019-03-22T17:42:46.016Z,6.73
2019-03-22T17:45:19.766Z,5.17
2019-03-22T17:47:52.626Z,5.83
2019-03-22T17:50:27.106Z,6.07
2019-03-22T17:53:00.181Z,4.37
2019-03-22T17:55:33.959Z,6.90
2019-03-22T17:58:07.070Z,4.60
2019-03-22T18:00:42.381Z,3.03
2019-03-22T18:03:16.022Z,8.33
2019-03-22T18:05:48.182Z,4.20
2019-03-22T18:08:22.525Z,5.30
2019-03-22T18:10:55.099Z,3.67
2019-03-22T18:13:28.640Z,5.63
2019-03-22T18:16:01.779Z,6.07
2019-03-22T18:18:33.780Z,7.00
2019-03-22T18:21:06.631Z,7.37
2019-03-22T18:23:39.230Z,6.40
2019-03-22T18:26:12.013Z,10.83
2019-03-22T18:28:44.121Z,8.77
2019-03-22T18:31:16.585Z,8.43
2019-03-22T18:33:48.347Z,9.73
2019-03-22T18:36:24.267Z,8.93
2019-03-22T18:38:59.007Z,9.13
2019-03-22T18:41:32.148Z,6.50
2019-03-22T18:44:05.534Z,8.90
2019-03-22T18:46:39.444Z,7.07
2019-03-22T18:49:12.088Z,10.23
2019-03-22T18:51:47.027Z,8.07
2019-03-22T18:54:19.790Z,6.43
2019-03-22T18:56:53.299Z,6.10
2019-03-22T18:59:25.569Z,6.83
2019-03-22T19:01:57.364Z,7.53
2019-03-22T19:04:29.522Z,5.83
2019-03-22T19:07:06.751Z,9.43
2019-03-22T19:09:41.505Z,7.20
2019-03-22T19:12:15.703Z,7.37
2019-03-22T19:14:48.766Z,7.60
2019-03-22T19:17:21.714Z,8.67
2019-03-22T19:19:59.402Z,5.10
2019-03-22T19:22:33.876Z,4.90
2019-03-22T19:25:08.342Z,6.20
2019-03-22T19:27:41.571Z,4.77
2019-03-22T19:30:20.882Z,5.23
2019-03-22T19:32:54.031Z,4.57
2019-03-22T19:35:26.335Z,6.83
2019-03-22T19:37:59.547Z,5.43
2019-03-22T19:40:39.370Z,7.43
2019-03-22T19:43:17.273Z,7.83
2019-03-22T19:45:56.863Z,5.73
2019-03-22T19:48:47.469Z,7.57
2019-03-22T19:51:32.480Z,7.00
2019-03-22T19:54:11.119Z,10.23
2019-03-22T19:56:56.098Z,8.00
2019-03-22T19:59:34.025Z,7.60
2019-03-22T20:02:09.957Z,6.33
2019-03-22T20:04:45.408Z,5.60
2019-03-22T20:07:26.843Z,5.07
2019-03-22T20:09:57.232Z,7.03
2019-03-22T20:12:37.362Z,4.50
2019-03-22T20:15:16.564Z,7.73
2019-03-22T20:17:50.911Z,4.33
2019-03-22T20:20:24.517Z,6.07
2019-03-22T20:22:59.298Z,6.10
2019-03-22T20:25:44.760Z,6.20
2019-03-22T20:28:18.327Z,8.50
2019-03-22T20:30:56.433Z,10.03
2019-03-22T20:33:29.974Z,5.70
2019-03-22T20:36:03.285Z,6.23
2019-03-22T20:38:37.347Z,9.47
2019-03-22T20:41:11.449Z,5.07
2019-03-22T20:43:45.420Z,6.53
2019-03-22T20:46:20.136Z,6.90
2019-03-22T20:49:01.468Z,7.03
2019-03-22T20:51:33.966Z,5.00
2019-03-22T20:54:10.233Z,6.60
2019-03-22T20:56:44.082Z,13.10
2019-03-22T20:59:19.363Z,10.43
2019-03-22T21:01:52.054Z,9.60
2019-03-22T21:04:27.621Z,9.20
2019-03-22T21:07:01.435Z,8.57
2019-03-22T21:09:35.333Z,11.73
2019-03-22T21:12:09.821Z,9.37
2019-03-22T21:14:43.075Z,9.53
2019-03-22T21:17:25.661Z,11.10
2019-03-22T21:20:04.680Z,9.13
2019-03-22T21:22:38.731Z,9.53
2019-03-22T21:25:27.016Z,7.60
2019-03-22T21:28:04.093Z,12.10
2019-03-22T21:30:43.027Z,8.17
2019-03-22T21:33:20.060Z,7.10
2019-03-22T21:35:57.333Z,8.87
2019-03-22T21:38:47.760Z,12.47
2019-03-22T21:41:40.052Z,11.73
2019-03-22T21:44:17.518Z,13.30
2019-03-22T21:46:53.898Z,12.53
2019-03-22T21:49:30.321Z,11.30
2019-03-22T21:52:07.117Z,8.10
2019-03-22T21:54:43.025Z,10.30
2019-03-22T21:57:22.354Z,9.53
2019-03-22T21:59:58.012Z,9.33
2019-03-22T22:02:34.020Z,10.10
2019-03-22T22:05:08.457Z,9.43
2019-03-22T22:07:41.493Z,12.17
2019-03-22T22:10:16.159Z,6.50
2019-03-22T22:12:49.248Z,9.00
2019-03-22T22:15:22.217Z,10.30
2019-03-22T22:17:55.844Z,10.03
2019-03-22T22:20:30.480Z,14.07
2019-03-22T22:23:05.894Z,9.10
2019-03-22T22:25:40.922Z,11.20
2019-03-22T22:28:16.930Z,12.33
2019-03-22T22:30:53.877Z,11.23
2019-03-22T22:33:30.236Z,13.50
2019-03-22T22:36:06.017Z,11.93
2019-03-22T22:38:40.914Z,14.30
2019-03-22T22:41:14.619Z,12.77
2019-03-22T22:43:48.279Z,11.43
2019-03-22T22:46:21.802Z,12.87
2019-03-22T22:48:55.845Z,14.73
2019-03-22T22:51:31.943Z,13.13
2019-03-22T22:54:15.209Z,15.33
2019-03-22T22:56:48.845Z,11.23
2019-03-22T22:59:23.441Z,11.47
2019-03-22T23:02:00.812Z,12.77
2019-03-22T23:04:34.169Z,12.23
2019-03-22T23:07:09.897Z,11.53
2019-03-22T23:09:43.806Z,13.37
2019-03-22T23:12:19.432Z,21.23
2019-03-22T23:15:08.703Z,17.97
2019-03-22T23:17:42.449Z,19.70
2019-03-22T23:20:17.929Z,25.27
2019-03-22T23:22:50.338Z,26.00
2019-03-22T23:25:24.061Z,29.83
2019-03-22T23:28:00.805Z,24.87
2019-03-22T23:30:33.755Z,24.33
2019-03-22T23:33:14.242Z,30.03
2019-03-22T23:35:48.282Z,31.33
2019-03-22T23:38:21.697Z,33.93
2019-03-22T23:40:55.476Z,34.30
2019-03-22T23:43:30.463Z,32.47
2019-03-22T23:46:04.217Z,32.60
2019-03-22T23:48:42.511Z,36.27
2019-03-22T23:51:15.767Z,31.80
2019-03-22T23:53:48.822Z,36.57
2019-03-22T23:56:21.246Z,33.03
2019-03-22T23:58:57.055Z,34.03
